首页
METAR-TAF:

METAR-TAF

机场 :

斯德哥爾摩-阿蘭達機場

斯德哥爾摩-阿蘭達, 瑞典

纬度: 59-39N, 经度: 017-57E, 海拔: 38米

当前天气观测

该预报发布于31分钟前的01:50 UTC
风速5节,风向西
温度 9°C
湿度 71%
气压 1006 hPa
能见度10公里或以上
1500米以下无云,无积雨云

METAR: ESSA 230150Z 26005KT CAVOK 09/04 Q1006 NOSIG

时间: 04:21 (02:21 UTC)

预报

该预报发布于2小时和51分钟前的23:30 UTC
预报有效从23日的 00点(UTC)到 23日的 24点(UTC)
风速10节,风向西
能见度10公里或以上
1500米以下无云,无积雨云
成为
从 23日的 10点(UTC)到 23日的 12点(UTC)
风速7节,风向北转西北

TAF: ESSA 222330Z 2300/2324 27010KT CAVOK BECMG 2310/2312 33007KT

超过4000个机场的气象观测和天气预报(METAR&TAF报告)。

可查询的气象台以黄色和红色小点在地图上表示。

将鼠标移到小点上方,可查看气象台名称。

然后点击查看天气观测和预报。

如需切换地图:点击带黑十字的绿色按钮放大地图;点击带横线的绿色按钮缩小地图;或者点击绿色箭头查看邻近地区的地图。


METAR-TAF: